createdAt,value
2022-08-03T00:03:41.470Z,22.98
2022-08-03T00:08:44.993Z,21.75
2022-08-03T00:13:48.431Z,20.10
2022-08-03T00:18:53.466Z,22.40
2022-08-03T00:23:56.911Z,23.63
2022-08-03T00:28:59.912Z,24.52
2022-08-03T00:34:04.774Z,23.65
2022-08-03T00:39:09.554Z,23.40
2022-08-03T00:44:12.497Z,23.15
2022-08-03T00:49:17.109Z,23.17
2022-08-03T00:54:20.861Z,22.70
2022-08-03T00:59:23.791Z,23.63
2022-08-03T01:04:28.387Z,22.73
2022-08-03T01:09:41.214Z,21.42
2022-08-03T01:14:50.552Z,21.70
2022-08-03T01:20:01.838Z,19.50
2022-08-03T01:25:11.179Z,24.35
2022-08-03T01:30:16.159Z,23.60
2022-08-03T01:35:28.450Z,26.02
2022-08-03T01:40:34.066Z,23.25
2022-08-03T01:45:40.029Z,24.35
2022-08-03T01:50:43.885Z,21.83
2022-08-03T01:55:49.007Z,21.85
2022-08-03T02:00:59.648Z,23.27
2022-08-03T02:07:00.646Z,23.23
2022-08-03T02:11:26.583Z,21.02
2022-08-03T02:16:33.797Z,22.98
2022-08-03T02:21:55.836Z,20.42
2022-08-03T02:27:05.656Z,23.27
2022-08-03T02:32:14.839Z,24.20
2022-08-03T02:37:19.791Z,23.30
2022-08-03T02:42:25.096Z,21.70
2022-08-03T02:47:54.058Z,20.90
2022-08-03T02:52:56.459Z,23.48
2022-08-03T02:58:01.653Z,26.98
2022-08-03T03:03:06.854Z,24.33
2022-08-03T03:08:17.807Z,22.83
2022-08-03T03:13:23.465Z,22.65
2022-08-03T03:18:28.975Z,22.70
2022-08-03T03:23:35.738Z,24.15
2022-08-03T03:28:38.791Z,23.23
2022-08-03T03:33:43.795Z,32.58
2022-08-03T03:38:46.947Z,44.25
2022-08-03T03:43:50.856Z,56.10
2022-08-03T03:48:56.319Z,56.78
2022-08-03T03:54:00.312Z,50.30
2022-08-03T03:59:03.834Z,44.95
2022-08-03T04:04:26.606Z,36.05
2022-08-03T04:09:49.041Z,33.92
2022-08-03T04:14:54.512Z,28.58
2022-08-03T04:20:02.244Z,31.17
2022-08-03T04:25:10.787Z,34.08
2022-08-03T04:30:15.573Z,33.15
2022-08-03T04:35:21.192Z,32.75
2022-08-03T04:40:46.708Z,30.38
2022-08-03T04:45:51.548Z,25.92
2022-08-03T04:50:56.343Z,25.98
2022-08-03T04:56:05.069Z,30.40
2022-08-03T05:01:08.155Z,29.50
2022-08-03T05:06:12.761Z,28.13
2022-08-03T05:11:19.813Z,28.23
2022-08-03T05:16:23.033Z,28.52
2022-08-03T05:21:52.619Z,26.52
2022-08-03T05:26:50.842Z,23.85
2022-08-03T05:31:53.923Z,25.33
2022-08-03T05:36:58.410Z,23.45
2022-08-03T05:42:01.759Z,23.90
2022-08-03T05:47:04.873Z,24.65
2022-08-03T05:52:11.702Z,23.23
2022-08-03T06:02:24.599Z,24.13
2022-08-03T06:07:29.423Z,21.83
2022-08-03T06:12:33.245Z,22.33
2022-08-03T06:17:45.605Z,25.52
2022-08-03T06:23:00.519Z,26.15
2022-08-03T06:28:05.535Z,23.52
2022-08-03T06:33:08.738Z,23.52
2022-08-03T06:38:13.393Z,24.90
2022-08-03T06:43:16.654Z,23.98
2022-08-03T06:48:19.735Z,21.83
2022-08-03T06:53:24.227Z,19.42
2022-08-03T06:58:27.800Z,20.45
2022-08-03T07:03:31.026Z,19.67
2022-08-03T07:08:36.490Z,16.42
2022-08-03T07:13:41.773Z,19.05
2022-08-03T07:18:45.080Z,15.48
2022-08-03T07:23:49.630Z,13.13
2022-08-03T07:28:52.787Z,10.40
2022-08-03T07:33:55.945Z,13.15
2022-08-03T07:39:00.947Z,12.10
2022-08-03T07:44:19.285Z,9.93
2022-08-03T07:49:22.611Z,9.77
2022-08-03T07:54:28.007Z,9.68
2022-08-03T07:59:56.990Z,9.95
2022-08-03T08:04:55.033Z,8.65
2022-08-03T08:09:59.816Z,8.82
2022-08-03T08:15:03.295Z,9.05
2022-08-03T08:20:07.239Z,8.40
2022-08-03T08:25:13.640Z,7.80
2022-08-03T08:30:19.665Z,6.53
2022-08-03T08:35:22.659Z,7.55
2022-08-03T08:40:28.505Z,10.52
2022-08-03T08:45:32.621Z,6.97
2022-08-03T08:50:37.776Z,9.38
2022-08-03T08:55:58.367Z,6.82
2022-08-03T09:01:03.432Z,5.72
2022-08-03T09:06:07.169Z,8.90
2022-08-03T09:11:12.477Z,5.70
2022-08-03T09:16:17.571Z,6.38
2022-08-03T09:21:34.485Z,6.93
2022-08-03T09:26:49.773Z,6.50
2022-08-03T09:32:01.759Z,6.97
2022-08-03T09:37:15.155Z,5.28
2022-08-03T09:42:23.802Z,4.53
2022-08-03T09:47:32.159Z,5.28
2022-08-03T09:52:49.752Z,5.53
2022-08-03T09:58:06.259Z,4.93
2022-08-03T10:03:09.213Z,4.22
2022-08-03T10:08:15.966Z,4.60
2022-08-03T10:13:21.347Z,3.28
2022-08-03T10:18:24.884Z,3.22
2022-08-03T10:29:01.624Z,4.65
2022-08-03T10:34:07.156Z,3.28
2022-08-03T10:39:16.091Z,3.95
2022-08-03T10:44:26.556Z,3.83
2022-08-03T10:49:34.788Z,10.95
2022-08-03T10:55:03.225Z,6.60
2022-08-03T11:00:13.524Z,7.25
2022-08-03T11:05:28.602Z,7.85
2022-08-03T11:10:32.462Z,4.65
2022-08-03T11:15:38.238Z,4.78
2022-08-03T11:20:48.428Z,7.32
2022-08-03T11:26:14.652Z,5.00
2022-08-03T11:31:50.211Z,4.07
2022-08-03T11:37:23.157Z,6.63
2022-08-03T11:42:45.442Z,4.18
2022-08-03T11:47:53.712Z,4.05
2022-08-03T11:52:57.238Z,7.45
2022-08-03T11:59:01.582Z,3.47
2022-08-03T12:03:25.314Z,3.92
2022-08-03T12:08:33.002Z,8.02
2022-08-03T12:14:44.927Z,5.88
2022-08-03T12:19:09.644Z,5.22
2022-08-03T12:24:12.695Z,4.68
2022-08-03T12:29:18.743Z,3.65
2022-08-03T12:34:23.400Z,4.70
2022-08-03T12:39:30.930Z,5.35
2022-08-03T12:44:35.300Z,7.00
2022-08-03T12:49:47.708Z,4.97
2022-08-03T12:54:57.922Z,4.40
2022-08-03T13:00:21.742Z,4.28
2022-08-03T13:05:44.281Z,5.68
2022-08-03T13:10:48.042Z,7.95
2022-08-03T13:15:52.502Z,5.50
2022-08-03T13:20:57.073Z,7.13
2022-08-03T13:26:00.204Z,4.60
2022-08-03T13:31:03.652Z,5.03
2022-08-03T13:36:08.739Z,5.38
2022-08-03T13:41:15.469Z,5.10
2022-08-03T13:46:20.798Z,4.68
2022-08-03T13:51:25.270Z,4.45
2022-08-03T13:56:28.619Z,4.65
2022-08-03T14:01:54.243Z,4.63
2022-08-03T14:06:56.139Z,4.60
2022-08-03T14:12:07.023Z,4.60
2022-08-03T14:17:12.032Z,4.53
2022-08-03T14:22:16.691Z,6.80
2022-08-03T14:27:19.905Z,6.00
2022-08-03T14:32:23.069Z,4.68
2022-08-03T14:37:27.731Z,5.18
2022-08-03T14:42:31.079Z,4.80
2022-08-03T14:47:34.079Z,5.38
2022-08-03T14:52:58.957Z,4.65
2022-08-03T15:03:25.310Z,4.50
2022-08-03T15:08:30.341Z,5.55
2022-08-03T15:13:33.365Z,6.47
2022-08-03T15:18:36.369Z,4.63
2022-08-03T15:23:41.238Z,4.15
2022-08-03T15:28:44.288Z,5.47
2022-08-03T15:33:47.744Z,4.57
2022-08-03T15:38:52.685Z,4.30
2022-08-03T15:43:56.303Z,4.20
2022-08-03T15:48:59.738Z,5.68
2022-08-03T15:54:04.641Z,3.85
2022-08-03T15:59:12.710Z,4.22
2022-08-03T16:04:16.563Z,4.72
2022-08-03T16:09:24.090Z,5.38
2022-08-03T16:14:53.473Z,6.18
2022-08-03T16:19:56.977Z,5.45
2022-08-03T16:25:02.192Z,5.68
2022-08-03T16:30:06.717Z,7.00
2022-08-03T16:35:19.639Z,4.70
2022-08-03T16:40:26.802Z,5.45
2022-08-03T16:45:29.837Z,4.75
2022-08-03T16:50:32.967Z,7.05
2022-08-03T16:55:52.127Z,4.43
2022-08-03T17:00:57.774Z,8.13
2022-08-03T17:06:03.502Z,6.93
2022-08-03T17:11:09.278Z,5.78
2022-08-03T17:16:15.280Z,5.25
2022-08-03T17:21:26.026Z,9.95
2022-08-03T17:26:37.212Z,7.55
2022-08-03T17:31:48.931Z,7.15
2022-08-03T17:37:50.088Z,6.68
2022-08-03T17:42:31.239Z,6.05
2022-08-03T17:47:41.848Z,8.05
2022-08-03T17:58:20.958Z,7.82
2022-08-03T18:03:57.847Z,7.07
2022-08-03T18:09:00.080Z,9.35
2022-08-03T18:14:31.283Z,9.40
2022-08-03T18:20:02.372Z,7.45
2022-08-03T18:25:00.634Z,8.55
2022-08-03T18:35:20.427Z,12.13
2022-08-03T18:40:28.362Z,8.90
2022-08-03T18:45:56.008Z,8.98
2022-08-03T18:51:06.971Z,17.88
2022-08-03T18:56:23.707Z,20.08
2022-08-03T19:02:00.208Z,14.95
2022-08-03T19:07:03.921Z,12.85
2022-08-03T19:12:26.538Z,14.85
2022-08-03T19:17:36.241Z,22.73
2022-08-03T19:22:45.896Z,20.02
2022-08-03T19:27:49.433Z,23.15
2022-08-03T19:32:54.682Z,21.60
2022-08-03T19:37:59.619Z,21.38
2022-08-03T19:43:10.028Z,13.23
2022-08-03T19:48:17.772Z,19.30
2022-08-03T19:53:35.422Z,16.75
2022-08-03T19:58:41.148Z,13.50
2022-08-03T20:03:47.096Z,13.15
2022-08-03T20:08:52.098Z,13.80
2022-08-03T20:13:56.890Z,14.27
2022-08-03T20:19:02.316Z,11.18
2022-08-03T20:24:24.624Z,11.23
2022-08-03T20:30:05.330Z,10.07
2022-08-03T20:34:58.568Z,16.80
2022-08-03T20:40:01.602Z,14.45
2022-08-03T20:45:14.038Z,11.90
2022-08-03T20:50:31.668Z,12.07
2022-08-03T20:55:48.209Z,9.98
2022-08-03T21:01:00.587Z,10.38
2022-08-03T21:06:07.411Z,7.78
2022-08-03T21:11:16.613Z,11.20
2022-08-03T21:16:21.858Z,7.93
2022-08-03T21:21:31.445Z,7.38
2022-08-03T21:26:38.205Z,7.15
2022-08-03T21:31:41.555Z,10.73
2022-08-03T21:36:46.365Z,8.02
2022-08-03T21:41:49.473Z,10.05
2022-08-03T21:46:55.555Z,10.38
2022-08-03T21:52:03.200Z,9.85
2022-08-03T21:57:13.379Z,9.27
2022-08-03T22:02:24.245Z,7.50
2022-08-03T22:07:29.865Z,8.70
2022-08-03T22:12:33.457Z,8.40
2022-08-03T22:17:54.638Z,9.70
2022-08-03T22:23:04.736Z,10.93
2022-08-03T22:28:11.673Z,8.07
2022-08-03T22:33:15.739Z,7.45
2022-08-03T22:38:20.293Z,9.35
2022-08-03T22:43:24.494Z,10.57
2022-08-03T22:48:31.944Z,7.25
2022-08-03T22:53:39.344Z,10.68
2022-08-03T22:58:42.380Z,12.57
2022-08-03T23:04:01.150Z,8.20
2022-08-03T23:09:10.148Z,6.80
2022-08-03T23:14:15.404Z,10.02
2022-08-03T23:19:23.958Z,11.05
2022-08-03T23:24:30.607Z,12.10
2022-08-03T23:29:36.213Z,8.77
2022-08-03T23:34:58.764Z,8.98
2022-08-03T23:40:03.777Z,7.95
2022-08-03T23:45:08.113Z,10.27
2022-08-03T23:50:11.620Z,8.95
2022-08-03T23:55:33.981Z,10.05
